createdAt,value
2023-01-12T00:01:59.422Z,100.00
2023-01-12T00:04:26.179Z,100.00
2023-01-12T00:06:53.035Z,100.00
2023-01-12T00:09:19.761Z,100.00
2023-01-12T00:11:46.464Z,100.00
2023-01-12T00:14:13.398Z,100.00
2023-01-12T00:16:41.995Z,100.00
2023-01-12T00:19:10.505Z,100.00
2023-01-12T00:21:38.397Z,100.00
2023-01-12T00:24:05.403Z,100.00
2023-01-12T00:26:32.143Z,100.00
2023-01-12T00:28:58.953Z,100.00
2023-01-12T00:31:25.690Z,100.00
2023-01-12T00:33:53.791Z,100.00
2023-01-12T00:36:20.703Z,100.00
2023-01-12T00:38:47.573Z,100.00
2023-01-12T00:41:14.607Z,100.00
2023-01-12T00:43:41.314Z,100.00
2023-01-12T00:46:08.273Z,100.00
2023-01-12T00:48:35.210Z,100.00
2023-01-12T00:51:04.801Z,100.00
2023-01-12T00:53:31.516Z,100.00
2023-01-12T00:56:01.407Z,100.00
2023-01-12T00:58:28.193Z,100.00
2023-01-12T01:00:55.064Z,100.00
2023-01-12T01:03:21.848Z,100.00
2023-01-12T01:05:48.566Z,100.00
2023-01-12T01:08:16.645Z,100.00
2023-01-12T01:10:43.351Z,100.00
2023-01-12T01:13:10.042Z,100.00
2023-01-12T01:15:36.796Z,100.00
2023-01-12T01:18:03.622Z,100.00
2023-01-12T01:20:30.328Z,100.00
2023-01-12T01:22:57.008Z,100.00
2023-01-12T01:25:25.122Z,100.00
2023-01-12T01:27:51.808Z,100.00
2023-01-12T01:30:18.513Z,100.00
2023-01-12T01:32:45.218Z,100.00
2023-01-12T01:35:11.939Z,100.00
2023-01-12T01:37:38.615Z,100.00
2023-01-12T01:40:06.431Z,100.00
2023-01-12T01:42:34.619Z,100.00
2023-01-12T01:45:04.614Z,100.00
2023-01-12T01:47:36.616Z,100.00
2023-01-12T01:50:10.142Z,100.00
2023-01-12T01:52:42.298Z,100.00
2023-01-12T01:55:13.922Z,100.00
2023-01-12T01:57:45.809Z,100.00
2023-01-12T02:00:13.560Z,100.00
2023-01-12T02:02:43.833Z,100.00
2023-01-12T02:05:12.315Z,100.00
2023-01-12T02:07:39.171Z,100.00
2023-01-12T02:10:06.545Z,100.00
2023-01-12T02:12:33.357Z,100.00
2023-01-12T02:15:01.557Z,100.00
2023-01-12T02:17:48.737Z,100.00
2023-01-12T02:20:54.358Z,100.00
2023-01-12T02:24:01.080Z,100.00
2023-01-12T02:27:07.692Z,100.00
2023-01-12T02:30:30.688Z,100.00
2023-01-12T02:33:13.068Z,100.00
2023-01-12T02:35:45.544Z,100.00
2023-01-12T02:38:23.404Z,100.00
2023-01-12T02:40:56.569Z,100.00
2023-01-12T02:43:27.831Z,100.00
2023-01-12T02:46:02.204Z,100.00
2023-01-12T02:48:36.696Z,100.00
2023-01-12T02:51:10.225Z,100.00
2023-01-12T02:53:41.781Z,100.00
2023-01-12T02:56:10.378Z,100.00
2023-01-12T02:58:42.724Z,100.00
2023-01-12T03:01:12.095Z,100.00
2023-01-12T03:03:41.649Z,100.00
2023-01-12T03:06:09.194Z,100.00
2023-01-12T03:08:39.170Z,100.00
2023-01-12T03:11:11.922Z,100.00
2023-01-12T03:13:43.983Z,100.00
2023-01-12T03:16:13.301Z,100.00
2023-01-12T03:18:48.537Z,100.00
2023-01-12T03:21:24.960Z,100.00
2023-01-12T03:23:58.158Z,100.00
2023-01-12T03:26:27.399Z,100.00
2023-01-12T03:29:02.252Z,100.00
2023-01-12T03:31:29.093Z,99.39
2023-01-12T03:33:58.046Z,100.00
2023-01-12T03:36:33.553Z,100.00
2023-01-12T03:39:07.730Z,100.00
2023-01-12T03:41:44.221Z,100.00
2023-01-12T03:44:24.086Z,100.00
2023-01-12T03:46:55.230Z,100.00
2023-01-12T03:49:31.843Z,100.00
2023-01-12T03:52:01.683Z,99.78
2023-01-12T03:54:30.371Z,99.68
2023-01-12T03:56:58.078Z,100.00
2023-01-12T03:59:25.337Z,99.62
2023-01-12T04:01:52.333Z,98.46
2023-01-12T04:04:19.208Z,98.06
2023-01-12T04:06:47.513Z,99.99
2023-01-12T04:09:14.349Z,99.16
2023-01-12T04:11:41.126Z,99.68
2023-01-12T04:14:08.089Z,99.69
2023-01-12T04:16:34.885Z,97.84
2023-01-12T04:19:01.684Z,98.43
2023-01-12T04:21:28.503Z,98.14
2023-01-12T04:23:56.698Z,100.00
2023-01-12T04:26:23.667Z,100.00
2023-01-12T04:28:50.488Z,99.82
2023-01-12T04:31:17.196Z,99.06
2023-01-12T04:33:44.167Z,100.00
2023-01-12T04:36:11.539Z,100.00
2023-01-12T04:38:40.190Z,100.00
2023-01-12T04:41:08.864Z,100.00
2023-01-12T04:43:36.141Z,99.21
2023-01-12T04:46:06.037Z,98.78
2023-01-12T04:48:32.801Z,99.00
2023-01-12T04:51:00.779Z,96.78
2023-01-12T04:53:27.696Z,96.09
2023-01-12T04:55:54.636Z,97.10
2023-01-12T04:58:23.465Z,95.84
2023-01-12T05:00:50.363Z,95.51
2023-01-12T05:03:17.397Z,94.75
2023-01-12T05:05:44.386Z,94.30
2023-01-12T05:08:11.079Z,94.77
2023-01-12T05:10:37.871Z,95.23
2023-01-12T05:13:04.623Z,96.14
2023-01-12T05:15:32.990Z,99.71
2023-01-12T05:17:59.748Z,98.33
2023-01-12T05:20:26.652Z,99.42
2023-01-12T05:22:53.678Z,100.00
2023-01-12T05:25:20.336Z,100.00
2023-01-12T05:27:47.096Z,100.00
2023-01-12T05:30:14.324Z,100.00
2023-01-12T05:32:42.524Z,100.00
2023-01-12T05:35:09.751Z,100.00
2023-01-12T05:37:36.525Z,100.00
2023-01-12T05:40:03.675Z,100.00
2023-01-12T05:42:30.398Z,100.00
2023-01-12T05:44:57.170Z,99.34
2023-01-12T05:47:23.949Z,99.12
2023-01-12T05:49:52.109Z,98.21
2023-01-12T05:52:18.809Z,97.50
2023-01-12T05:54:45.508Z,96.97
2023-01-12T05:57:12.241Z,95.50
2023-01-12T05:59:38.985Z,95.52
2023-01-12T06:02:05.779Z,94.51
2023-01-12T06:04:32.722Z,94.21
2023-01-12T06:07:01.079Z,94.38
2023-01-12T06:09:28.133Z,95.30
2023-01-12T06:11:55.585Z,94.84
2023-01-12T06:14:22.312Z,94.48
2023-01-12T06:16:49.550Z,93.72
2023-01-12T06:19:16.304Z,94.32
2023-01-12T06:21:43.141Z,93.62
2023-01-12T06:24:11.519Z,93.47
2023-01-12T06:26:38.243Z,93.35
2023-01-12T06:29:05.083Z,93.36
2023-01-12T06:31:31.976Z,94.25
2023-01-12T06:33:58.937Z,94.43
2023-01-12T06:36:25.635Z,92.75
2023-01-12T06:38:52.408Z,91.78
2023-01-12T06:41:20.531Z,91.58
2023-01-12T06:43:47.295Z,91.13
2023-01-12T06:46:14.047Z,91.30
2023-01-12T06:48:40.845Z,91.34
2023-01-12T06:51:07.539Z,91.68
2023-01-12T06:53:34.331Z,92.51
2023-01-12T06:56:01.053Z,95.41
2023-01-12T06:58:29.254Z,97.29
2023-01-12T07:01:01.019Z,98.68
2023-01-12T07:03:27.811Z,99.01
2023-01-12T07:05:57.641Z,99.86
2023-01-12T07:08:24.576Z,100.00
2023-01-12T07:10:51.437Z,100.00
2023-01-12T07:13:18.270Z,100.00
2023-01-12T07:15:46.567Z,100.00
2023-01-12T07:18:13.257Z,100.00
2023-01-12T07:20:40.080Z,100.00
2023-01-12T07:23:06.896Z,100.00
2023-01-12T07:25:33.731Z,100.00
2023-01-12T07:28:00.609Z,100.00
2023-01-12T07:30:27.464Z,100.00
2023-01-12T07:32:55.606Z,100.00
2023-01-12T07:35:22.340Z,99.53
2023-01-12T07:37:49.932Z,99.29
2023-01-12T07:40:17.363Z,97.84
2023-01-12T07:42:44.128Z,98.21
2023-01-12T07:45:11.781Z,98.13
2023-01-12T07:47:38.775Z,100.00
2023-01-12T07:50:08.043Z,100.00
2023-01-12T07:52:34.883Z,100.00
2023-01-12T07:55:01.731Z,100.00
2023-01-12T07:57:28.422Z,100.00
2023-01-12T07:59:55.202Z,100.00
2023-01-12T08:02:22.071Z,100.00
2023-01-12T08:04:48.876Z,100.00
2023-01-12T08:07:17.050Z,100.00
2023-01-12T08:09:43.845Z,100.00
2023-01-12T08:12:10.537Z,100.00
2023-01-12T08:14:40.468Z,100.00
2023-01-12T08:17:11.109Z,100.00
2023-01-12T08:19:41.918Z,100.00
2023-01-12T08:22:14.128Z,100.00
2023-01-12T08:24:48.209Z,100.00
2023-01-12T08:27:18.803Z,100.00
2023-01-12T08:29:48.958Z,100.00
2023-01-12T08:32:16.160Z,100.00
2023-01-12T08:34:45.501Z,100.00
2023-01-12T08:37:16.351Z,100.00
2023-01-12T08:39:46.066Z,100.00
2023-01-12T08:42:13.149Z,100.00
2023-01-12T08:44:40.193Z,100.00
2023-01-12T08:47:15.662Z,100.00
2023-01-12T08:49:42.407Z,100.00
2023-01-12T08:52:09.192Z,100.00
2023-01-12T08:54:36.157Z,100.00
2023-01-12T08:57:04.330Z,100.00
2023-01-12T08:59:31.110Z,100.00
2023-01-12T09:01:58.040Z,100.00
2023-01-12T09:04:25.083Z,100.00
2023-01-12T09:06:51.796Z,100.00
2023-01-12T09:09:19.569Z,100.00
2023-01-12T09:11:47.453Z,100.00
2023-01-12T09:14:16.021Z,100.00
2023-01-12T09:16:43.276Z,100.00
2023-01-12T09:19:10.416Z,100.00
2023-01-12T09:21:38.708Z,100.00
2023-01-12T09:24:06.355Z,100.00
2023-01-12T09:26:37.732Z,99.20
2023-01-12T09:29:04.549Z,100.00
2023-01-12T09:31:33.703Z,99.36
2023-01-12T09:34:00.562Z,99.83
2023-01-12T09:36:28.881Z,99.92
2023-01-12T09:38:56.481Z,99.28
2023-01-12T09:41:26.739Z,98.27
2023-01-12T09:43:53.483Z,98.90
2023-01-12T09:46:30.343Z,98.45
2023-01-12T09:48:58.850Z,97.40
2023-01-12T09:51:32.186Z,96.82
2023-01-12T09:53:59.191Z,95.71
2023-01-12T09:56:29.587Z,95.52
2023-01-12T09:59:18.661Z,94.91
2023-01-12T10:01:45.703Z,94.30
2023-01-12T10:04:14.609Z,94.16
2023-01-12T10:06:41.883Z,94.48
2023-01-12T10:09:15.407Z,94.14
2023-01-12T10:11:49.780Z,93.68
2023-01-12T10:14:27.333Z,94.41
2023-01-12T10:17:08.002Z,97.40
2023-01-12T10:19:47.944Z,96.30
2023-01-12T10:22:21.814Z,94.58
2023-01-12T10:24:49.459Z,94.64
2023-01-12T10:27:22.402Z,96.83
2023-01-12T10:29:49.105Z,98.15
2023-01-12T10:32:15.785Z,97.03
2023-01-12T10:34:51.227Z,97.06
2023-01-12T10:37:18.049Z,97.17
2023-01-12T10:39:45.277Z,97.26
2023-01-12T10:42:21.062Z,95.84
2023-01-12T10:44:56.025Z,97.48
2023-01-12T10:47:22.930Z,97.36
2023-01-12T10:50:18.787Z,96.05
2023-01-12T10:52:45.996Z,96.29
2023-01-12T10:55:18.613Z,95.74
2023-01-12T10:57:48.192Z,95.46
2023-01-12T11:00:21.387Z,95.57
2023-01-12T11:02:48.950Z,96.69
2023-01-12T11:05:30.470Z,96.26
2023-01-12T11:07:58.233Z,96.79
2023-01-12T11:10:28.394Z,97.17
2023-01-12T11:12:57.355Z,96.84
2023-01-12T11:15:24.349Z,96.48
2023-01-12T11:18:03.659Z,95.03
2023-01-12T11:20:37.320Z,96.22
2023-01-12T11:23:09.548Z,95.90
2023-01-12T11:25:41.483Z,95.12
2023-01-12T11:28:17.687Z,93.74
2023-01-12T11:30:49.929Z,91.58
2023-01-12T11:33:20.465Z,93.29
2023-01-12T11:35:54.607Z,93.20
2023-01-12T11:38:26.271Z,93.27
2023-01-12T11:40:55.887Z,95.24
2023-01-12T11:43:32.554Z,93.29
2023-01-12T11:46:05.571Z,91.82
2023-01-12T11:48:42.212Z,92.27
2023-01-12T11:51:11.317Z,92.49
2023-01-12T11:53:40.119Z,91.39
2023-01-12T11:56:28.045Z,91.88
2023-01-12T11:59:03.910Z,90.29
2023-01-12T12:01:41.119Z,90.03
2023-01-12T12:04:21.515Z,88.14
2023-01-12T12:07:09.087Z,89.22
2023-01-12T12:10:05.035Z,87.84
2023-01-12T12:12:43.175Z,88.08
2023-01-12T12:17:54.584Z,88.38
2023-01-12T12:20:29.528Z,87.28
2023-01-12T12:23:12.482Z,87.31
2023-01-12T12:25:51.670Z,85.49
2023-01-12T12:28:39.837Z,83.62
2023-01-12T12:31:36.516Z,81.42
2023-01-12T12:34:25.446Z,78.46
2023-01-12T12:37:02.171Z,76.99
2023-01-12T12:39:36.370Z,76.85
2023-01-12T12:42:18.534Z,76.20
2023-01-12T12:44:59.978Z,74.50
2023-01-12T12:47:59.246Z,72.24
2023-01-12T12:50:31.059Z,71.94
2023-01-12T12:53:13.298Z,64.54
2023-01-12T12:55:43.366Z,56.57
2023-01-12T12:58:28.965Z,52.11
2023-01-12T13:01:43.027Z,52.42
2023-01-12T13:04:11.480Z,50.29
2023-01-12T13:06:42.582Z,49.05
2023-01-12T13:09:39.795Z,48.89
2023-01-12T13:12:20.778Z,49.41
2023-01-12T13:15:16.719Z,49.02
2023-01-12T13:17:47.476Z,50.39
2023-01-12T13:20:35.820Z,49.44
2023-01-12T13:23:02.684Z,49.76
2023-01-12T13:25:55.685Z,49.39
2023-01-12T13:28:23.964Z,49.46
2023-01-12T13:30:53.085Z,50.60
2023-01-12T13:33:27.629Z,50.06
2023-01-12T13:36:10.542Z,50.13
2023-01-12T13:39:05.813Z,50.00
2023-01-12T13:41:35.813Z,49.57
2023-01-12T13:44:06.173Z,49.94
2023-01-12T13:46:37.522Z,50.53
2023-01-12T13:49:24.836Z,51.47
2023-01-12T13:51:56.476Z,51.98
2023-01-12T13:54:23.365Z,49.51
2023-01-12T13:56:56.708Z,48.98
2023-01-12T13:59:24.845Z,49.64
2023-01-12T14:01:52.574Z,47.56
2023-01-12T14:04:51.351Z,47.67
2023-01-12T14:07:29.784Z,47.32
2023-01-12T14:10:13.694Z,46.94
2023-01-12T14:13:14.775Z,46.15
2023-01-12T14:15:43.900Z,45.78
2023-01-12T14:18:13.417Z,44.40
2023-01-12T14:20:46.127Z,44.26
2023-01-12T14:23:22.403Z,44.29
2023-01-12T14:26:12.492Z,45.07
2023-01-12T14:28:41.767Z,45.85
2023-01-12T14:31:19.290Z,46.17
2023-01-12T14:33:50.247Z,47.13
2023-01-12T14:36:21.777Z,47.26
2023-01-12T14:38:49.835Z,46.78
2023-01-12T14:41:22.821Z,46.50
2023-01-12T14:43:51.931Z,52.46
2023-01-12T14:46:26.463Z,60.92
2023-01-12T14:48:59.498Z,65.17
2023-01-12T14:51:28.072Z,66.49
2023-01-12T14:53:58.733Z,68.49
2023-01-12T14:56:28.583Z,70.88
2023-01-12T14:59:05.979Z,71.08
2023-01-12T15:01:36.615Z,71.55
2023-01-12T15:04:05.139Z,70.92
2023-01-12T15:06:38.199Z,68.64
2023-01-12T15:09:05.596Z,63.91
2023-01-12T15:11:34.379Z,59.82
2023-01-12T15:14:02.672Z,57.88
2023-01-12T15:16:29.703Z,58.48
2023-01-12T15:18:57.969Z,56.44
2023-01-12T15:21:25.737Z,55.28
2023-01-12T15:23:52.493Z,55.37
2023-01-12T15:26:20.312Z,56.80
2023-01-12T15:28:47.565Z,60.66
2023-01-12T15:31:19.432Z,77.46
2023-01-12T15:33:46.232Z,88.81
2023-01-12T15:36:15.078Z,91.34
2023-01-12T15:38:41.851Z,92.78
2023-01-12T15:41:16.556Z,93.68
2023-01-12T15:43:43.370Z,91.79
2023-01-12T15:46:18.518Z,90.62
2023-01-12T15:48:45.200Z,90.21
2023-01-12T15:51:15.597Z,89.28
2023-01-12T15:53:42.391Z,87.44
2023-01-12T15:56:12.443Z,87.77
2023-01-12T15:58:39.151Z,86.04
2023-01-12T16:01:06.070Z,83.53
2023-01-12T16:04:00.581Z,81.50
2023-01-12T16:06:21.454Z,77.75
2023-01-12T16:08:48.197Z,75.25
2023-01-12T16:11:20.202Z,74.09
2023-01-12T16:13:48.157Z,73.61
2023-01-12T16:16:16.196Z,71.07
2023-01-12T16:18:43.281Z,69.97
2023-01-12T16:21:14.934Z,68.16
2023-01-12T16:23:43.302Z,69.68
2023-01-12T16:26:10.114Z,68.43
2023-01-12T16:28:37.061Z,65.92
2023-01-12T16:31:06.097Z,65.73
2023-01-12T16:33:33.125Z,65.11
2023-01-12T16:36:00.059Z,64.79
2023-01-12T16:38:26.883Z,64.54
2023-01-12T16:40:54.999Z,63.46
2023-01-12T16:43:21.991Z,61.72
2023-01-12T16:45:48.786Z,62.43
2023-01-12T16:48:15.604Z,60.31
2023-01-12T16:50:43.137Z,60.30
2023-01-12T16:53:10.484Z,58.46
2023-01-12T16:55:38.291Z,58.38
2023-01-12T16:58:07.291Z,58.32
2023-01-12T17:00:35.716Z,56.84
2023-01-12T17:03:02.983Z,57.12
2023-01-12T17:05:31.455Z,55.42
2023-01-12T17:07:58.240Z,54.71
2023-01-12T17:10:25.130Z,53.99
2023-01-12T17:12:57.123Z,53.08
2023-01-12T17:15:29.614Z,54.37
2023-01-12T17:17:56.462Z,53.31
2023-01-12T17:20:23.312Z,53.15
2023-01-12T17:22:50.772Z,53.55
2023-01-12T17:25:17.835Z,52.34
2023-01-12T17:27:44.608Z,52.69
2023-01-12T17:30:12.102Z,54.33
2023-01-12T17:32:40.757Z,54.28
2023-01-12T17:35:08.227Z,54.59
2023-01-12T17:37:35.196Z,53.30
2023-01-12T17:40:02.626Z,52.97
2023-01-12T17:42:29.363Z,52.63
2023-01-12T17:44:56.025Z,54.11
2023-01-12T17:47:23.608Z,54.46
2023-01-12T17:49:53.075Z,54.32
2023-01-12T17:52:19.926Z,54.16
2023-01-12T17:54:46.740Z,55.42
2023-01-12T17:57:13.530Z,54.96
2023-01-12T17:59:40.307Z,56.35
2023-01-12T18:02:07.550Z,55.63
2023-01-12T18:04:34.311Z,54.73
2023-01-12T18:07:02.450Z,54.91
2023-01-12T18:09:29.358Z,55.47
2023-01-12T18:11:56.029Z,54.82
2023-01-12T18:14:22.751Z,55.40
2023-01-12T18:16:49.632Z,54.87
2023-01-12T18:19:16.376Z,56.21
2023-01-12T18:21:43.113Z,56.27
2023-01-12T18:24:11.423Z,56.60
2023-01-12T18:26:38.386Z,56.89
2023-01-12T18:29:06.129Z,59.92
2023-01-12T18:31:34.124Z,60.17
2023-01-12T18:34:01.599Z,60.82
2023-01-12T18:36:28.280Z,61.87
2023-01-12T18:38:55.083Z,62.37
2023-01-12T18:41:23.539Z,61.95
2023-01-12T18:43:50.280Z,62.03
2023-01-12T18:46:17.083Z,60.87
2023-01-12T18:48:44.345Z,59.08
2023-01-12T18:51:11.360Z,58.81
2023-01-12T18:53:38.764Z,57.32
2023-01-12T18:56:06.431Z,59.04
2023-01-12T18:58:35.502Z,57.30
2023-01-12T19:01:03.636Z,56.87
2023-01-12T19:03:30.648Z,57.69
2023-01-12T19:05:57.384Z,57.28
2023-01-12T19:08:24.081Z,56.53
2023-01-12T19:10:50.902Z,55.25
2023-01-12T19:13:17.631Z,55.22
2023-01-12T19:15:45.977Z,55.28
2023-01-12T19:18:12.749Z,55.78
2023-01-12T19:20:39.607Z,56.41
2023-01-12T19:23:06.339Z,56.67
2023-01-12T19:25:33.024Z,57.03
2023-01-12T19:27:59.867Z,57.09
2023-01-12T19:30:26.648Z,57.69
2023-01-12T19:32:54.830Z,57.74
2023-01-12T19:35:21.618Z,57.85
2023-01-12T19:37:48.982Z,57.61
2023-01-12T19:40:16.627Z,57.25
2023-01-12T19:42:43.309Z,57.43
2023-01-12T19:45:10.434Z,57.11
2023-01-12T19:47:38.978Z,57.72
2023-01-12T19:50:09.129Z,56.30
2023-01-12T19:52:35.971Z,56.02
2023-01-12T19:55:03.881Z,55.12
2023-01-12T19:57:30.954Z,55.86
2023-01-12T19:59:57.704Z,55.29
2023-01-12T20:02:24.849Z,54.32
2023-01-12T20:04:51.716Z,54.66
2023-01-12T20:07:20.098Z,55.07
2023-01-12T20:09:46.912Z,54.96
2023-01-12T20:12:13.976Z,53.61
2023-01-12T20:14:40.741Z,53.54
2023-01-12T20:17:07.676Z,57.11
2023-01-12T20:19:34.755Z,55.44
2023-01-12T20:22:01.959Z,55.76
2023-01-12T20:24:30.332Z,55.54
2023-01-12T20:26:57.032Z,55.76
2023-01-12T20:29:23.834Z,55.72
2023-01-12T20:31:50.892Z,55.29
2023-01-12T20:34:18.432Z,54.38
2023-01-12T20:36:47.688Z,55.83
2023-01-12T20:39:15.293Z,56.09
2023-01-12T20:41:43.447Z,56.62
2023-01-12T20:44:14.830Z,56.15
2023-01-12T20:46:42.314Z,55.82
2023-01-12T20:49:09.613Z,56.85
2023-01-12T20:51:36.580Z,57.51
2023-01-12T20:54:04.892Z,55.93
2023-01-12T20:56:31.993Z,55.82
2023-01-12T20:59:00.403Z,55.63
2023-01-12T21:01:27.880Z,55.94
2023-01-12T21:03:54.750Z,55.70
2023-01-12T21:06:21.504Z,54.83
2023-01-12T21:08:48.299Z,54.77
2023-01-12T21:11:16.864Z,55.61
2023-01-12T21:13:44.040Z,55.00
2023-01-12T21:16:14.259Z,53.15
2023-01-12T21:18:41.291Z,54.72
2023-01-12T21:21:08.072Z,55.40
2023-01-12T21:23:34.936Z,55.62
2023-01-12T21:26:01.778Z,54.32
2023-01-12T21:28:30.274Z,54.46
2023-01-12T21:31:00.188Z,53.21
2023-01-12T21:33:28.755Z,53.04
2023-01-12T21:35:55.897Z,54.21
2023-01-12T21:38:23.675Z,55.54
2023-01-12T21:40:50.640Z,54.30
2023-01-12T21:43:17.456Z,54.94
2023-01-12T21:45:45.649Z,54.50
2023-01-12T21:48:13.876Z,55.00
2023-01-12T21:50:42.688Z,56.33
2023-01-12T21:53:14.082Z,55.79
2023-01-12T21:55:41.867Z,55.27
2023-01-12T21:58:08.577Z,56.48
2023-01-12T22:00:35.407Z,55.57
2023-01-12T22:03:02.157Z,54.47
2023-01-12T22:05:29.165Z,54.14
2023-01-12T22:07:57.276Z,54.22
2023-01-12T22:10:23.985Z,55.67
2023-01-12T22:12:52.338Z,55.35
2023-01-12T22:15:19.251Z,53.87
2023-01-12T22:17:46.119Z,54.64
2023-01-12T22:20:14.123Z,53.53
2023-01-12T22:22:40.852Z,54.60
2023-01-12T22:25:11.189Z,53.80
2023-01-12T22:27:38.829Z,54.68
2023-01-12T22:30:07.056Z,54.14
2023-01-12T22:32:33.796Z,53.29
2023-01-12T22:35:00.502Z,53.79
2023-01-12T22:37:28.109Z,54.85
2023-01-12T22:39:55.513Z,54.53
2023-01-12T22:42:23.908Z,53.97
2023-01-12T22:44:50.850Z,54.13
2023-01-12T22:47:17.512Z,54.57
2023-01-12T22:49:44.216Z,55.47
2023-01-12T22:52:11.357Z,55.37
2023-01-12T22:54:38.035Z,56.28
2023-01-12T22:57:04.792Z,56.04
2023-01-12T22:59:32.953Z,55.73
2023-01-12T23:01:59.663Z,58.20
2023-01-12T23:04:26.347Z,57.38
2023-01-12T23:06:53.048Z,57.54
2023-01-12T23:09:19.747Z,57.83
2023-01-12T23:11:46.414Z,57.35
2023-01-12T23:14:13.081Z,56.15
2023-01-12T23:16:41.119Z,56.25
2023-01-12T23:19:08.590Z,57.25
2023-01-12T23:21:35.277Z,58.75
2023-01-12T23:24:01.971Z,58.00
2023-01-12T23:26:30.538Z,58.24
2023-01-12T23:28:59.252Z,58.33
2023-01-12T23:31:28.417Z,57.98
2023-01-12T23:33:56.747Z,60.19
2023-01-12T23:36:25.320Z,62.06
2023-01-12T23:38:53.377Z,63.94
2023-01-12T23:41:21.944Z,64.29
2023-01-12T23:43:50.584Z,62.63
2023-01-12T23:46:18.441Z,67.06
2023-01-12T23:48:45.127Z,67.68
2023-01-12T23:51:13.347Z,70.04
2023-01-12T23:53:40.019Z,70.00
2023-01-12T23:56:09.216Z,74.05
2023-01-12T23:58:36.323Z,73.46
